Time;durP1;ratioP1;P1;durP2;ratioP2;P2;SDS_P1;SDS_P2;PMS_P1;PMS_P2;Temp;Humidity;BMP_temperature;BMP_pressure;BME280_temperature;BME280_humidity;BME280_pressure;Samples;Min_cycle;Max_cycle;Signal;HPM_P1;HPM_P2
2023/07/26 00:00:59;;;;;;;5.10;3.00;;;;;;;14.28;74.70;101091.81;5019552;28;20086;-64
2023/07/26 00:03:24;;;;;;;5.45;2.67;;;;;;;14.30;75.18;101095.09;5026041;28;20026;-63
2023/07/26 00:05:49;;;;;;;3.65;2.80;;;;;;;14.28;75.36;101086.44;5024596;28;20021;-64
2023/07/26 00:08:15;;;;;;;2.90;2.65;;;;;;;14.35;75.65;101097.22;5024244;28;20107;-63
2023/07/26 00:10:46;;;;;;;6.78;2.80;;;;;;;14.40;75.96;101095.63;5024509;28;20112;-63
2023/07/26 00:13:13;;;;;;;4.70;2.90;;;;;;;14.47;76.41;101101.91;5023189;28;20596;-64
2023/07/26 00:15:38;;;;;;;5.65;2.90;;;;;;;14.53;75.92;101094.97;5022946;28;20025;-64
2023/07/26 00:18:04;;;;;;;6.32;2.97;;;;;;;14.56;76.13;101095.41;5018531;28;20091;-64
2023/07/26 00:20:29;;;;;;;4.72;2.90;;;;;;;14.48;76.34;101084.03;5024904;28;20025;-64
2023/07/26 00:22:54;;;;;;;5.93;2.97;;;;;;;14.47;76.01;101083.22;5025231;28;20037;-64
2023/07/26 00:25:20;;;;;;;5.40;3.22;;;;;;;14.51;75.95;101089.00;5021810;28;20032;-64
2023/07/26 00:27:45;;;;;;;6.47;3.10;;;;;;;14.42;75.89;101087.41;5029764;28;20021;-64
2023/07/26 00:30:11;;;;;;;3.70;2.92;;;;;;;14.38;75.67;101092.31;5023466;28;20021;-63
2023/07/26 00:32:36;;;;;;;3.97;3.00;;;;;;;14.43;75.84;101091.78;5022569;28;20045;-64
2023/07/26 00:35:01;;;;;;;4.07;3.13;;;;;;;14.36;75.71;101082.81;5021838;28;20088;-63
2023/07/26 00:37:27;;;;;;;3.60;3.00;;;;;;;14.43;75.87;101084.56;5025898;28;20040;-64
2023/07/26 00:39:52;;;;;;;4.05;3.33;;;;;;;14.38;75.79;101081.63;5016634;28;20021;-64
2023/07/26 00:42:18;;;;;;;6.15;3.55;;;;;;;14.38;75.71;101076.28;5027027;28;20098;-64
2023/07/26 00:44:44;;;;;;;5.32;3.47;;;;;;;14.34;75.64;101080.34;5017451;28;20022;-64
2023/07/26 00:47:09;;;;;;;5.45;3.35;;;;;;;14.39;75.97;101087.78;5023623;28;20075;-63
2023/07/26 00:49:35;;;;;;;25.13;3.72;;;;;;;14.39;75.79;101087.78;5035802;28;20033;-64
2023/07/26 00:52:00;;;;;;;5.82;3.33;;;;;;;14.43;75.80;101079.22;5025336;28;20076;-64
2023/07/26 00:54:26;;;;;;;5.18;3.40;;;;;;;14.44;76.19;101078.22;5027069;28;20076;-64
2023/07/26 00:56:52;;;;;;;4.95;3.30;;;;;;;14.41;76.65;101077.75;5026317;28;20025;-64
2023/07/26 00:59:17;;;;;;;6.38;2.85;;;;;;;14.35;76.96;101075.84;5021164;28;20033;-63
2023/07/26 01:01:43;;;;;;;4.22;3.10;;;;;;;14.31;77.69;101086.06;5024161;28;20025;-64
2023/07/26 01:04:08;;;;;;;5.75;3.20;;;;;;;14.25;77.54;101084.16;5020099;28;20096;-64
2023/07/26 01:06:40;;;;;;;4.60;3.05;;;;;;;14.23;77.79;101089.69;5020081;28;20609;-63
2023/07/26 01:09:23;;;;;;;5.75;3.50;;;;;;;14.21;77.86;101078.38;5023406;28;20113;-64
2023/07/26 01:12:14;;;;;;;3.85;3.45;;;;;;;14.21;78.01;101093.56;5022280;28;20037;-63
2023/07/26 01:14:57;;;;;;;5.47;3.47;;;;;;;14.22;77.96;101087.22;5024559;28;20054;-64
2023/07/26 01:17:22;;;;;;;5.90;3.92;;;;;;;14.22;77.70;101082.69;5019363;28;20044;-63
2023/07/26 01:19:47;;;;;;;6.15;3.50;;;;;;;14.29;77.77;101081.94;5019857;28;20030;-64
2023/07/26 01:22:13;;;;;;;4.88;3.70;;;;;;;14.33;77.96;101089.38;5023783;28;20033;-64
2023/07/26 01:24:38;;;;;;;5.35;3.92;;;;;;;14.25;78.35;101085.00;5024830;28;20445;-64
2023/07/26 01:27:04;;;;;;;4.10;3.50;;;;;;;14.24;78.40;101085.19;5019397;28;20033;-64
2023/07/26 01:29:29;;;;;;;8.88;3.95;;;;;;;14.24;78.70;101085.19;5017822;28;20029;-64
2023/07/26 01:31:55;;;;;;;4.38;3.88;;;;;;;14.26;78.96;101085.81;5022850;28;20033;-64
2023/07/26 01:34:20;;;;;;;4.25;3.85;;;;;;;14.22;78.79;101076.53;5019634;28;20046;-64
2023/07/26 01:36:47;;;;;;;5.40;3.83;;;;;;;14.21;78.99;101089.06;5024974;28;20030;-64
2023/07/26 01:39:13;;;;;;;7.47;4.18;;;;;;;14.13;78.78;101093.66;5028227;28;20400;-64
2023/07/26 01:41:40;;;;;;;5.80;3.90;;;;;;;14.03;78.90;101093.97;5027904;28;20477;-64
2023/07/26 01:44:05;;;;;;;4.50;3.95;;;;;;;13.94;79.58;101082.56;5026489;28;20033;-64
2023/07/26 01:46:30;;;;;;;4.00;3.65;;;;;;;13.93;79.97;101086.25;5022141;28;20025;-64
2023/07/26 01:48:55;;;;;;;4.25;3.75;;;;;;;13.91;79.97;101090.13;5027866;28;20061;-64
2023/07/26 01:51:21;;;;;;;7.72;3.88;;;;;;;14.01;80.31;101079.16;5021221;28;20040;-63
2023/07/26 01:53:46;;;;;;;5.63;3.95;;;;;;;13.98;80.64;101090.22;5016217;28;20471;-63
2023/07/26 01:56:11;;;;;;;7.57;4.07;;;;;;;13.99;80.00;101087.34;5030858;28;20029;-64
2023/07/26 01:58:36;;;;;;;7.75;3.95;;;;;;;13.98;79.94;101082.19;5026733;28;20060;-64
2023/07/26 02:01:03;;;;;;;6.13;4.57;;;;;;;13.94;80.37;101082.56;5022897;28;20030;-64
2023/07/26 02:03:29;;;;;;;6.55;4.30;;;;;;;13.93;80.70;101091.59;5018499;28;20038;-64
2023/07/26 02:05:54;;;;;;;7.40;4.47;;;;;;;13.95;80.54;101091.41;5014579;28;20036;-63
2023/07/26 02:08:19;;;;;;;5.30;4.45;;;;;;;13.92;80.09;101100.63;5019196;28;20028;-64
2023/07/26 02:10:45;;;;;;;5.28;4.40;;;;;;;13.98;79.89;101096.38;5020023;28;20497;-63
2023/07/26 02:13:10;;;;;;;9.25;4.50;;;;;;;13.97;79.83;101085.88;5017438;28;20029;-64
2023/07/26 02:15:35;;;;;;;6.15;4.68;;;;;;;13.93;80.10;101082.75;5021040;28;20624;-64
2023/07/26 02:18:01;;;;;;;9.15;5.00;;;;;;;13.87;80.36;101084.31;5023986;28;20081;-63
2023/07/26 02:20:26;;;;;;;7.05;4.40;;;;;;;13.90;80.35;101078.63;5022911;28;20687;-63
2023/07/26 02:22:53;;;;;;;5.30;3.92;;;;;;;13.90;80.65;101075.13;5018800;28;20129;-63
2023/07/26 02:25:18;;;;;;;5.68;4.22;;;;;;;13.87;80.95;101076.28;5019073;28;20025;-63
2023/07/26 02:27:43;;;;;;;6.40;4.63;;;;;;;13.81;80.99;101073.56;5023060;28;20025;-63
2023/07/26 02:30:09;;;;;;;6.00;5.40;;;;;;;13.79;80.83;101076.41;5026386;28;20445;-63
2023/07/26 02:32:34;;;;;;;7.55;5.72;;;;;;;13.71;80.50;101079.19;5014743;28;20025;-64
2023/07/26 02:34:59;;;;;;;6.93;5.25;;;;;;;13.66;80.33;101076.25;5021835;28;20119;-64
2023/07/26 02:37:25;;;;;;;6.68;5.40;;;;;;;13.65;80.47;101071.94;5017467;28;20021;-64
2023/07/26 02:39:50;;;;;;;8.45;5.45;;;;;;;13.59;80.70;101076.16;5025879;28;20028;-63
2023/07/26 02:42:16;;;;;;;8.98;5.40;;;;;;;13.62;80.85;101069.63;5025715;28;20041;-63
2023/07/26 02:44:42;;;;;;;5.80;5.20;;;;;;;13.62;80.83;101072.31;5027093;28;20418;-64
2023/07/26 02:47:07;;;;;;;7.60;5.80;;;;;;;13.59;81.07;101070.81;5023878;28;20379;-64
2023/07/26 02:49:32;;;;;;;8.27;5.68;;;;;;;13.57;81.13;101077.34;5022658;28;20116;-63
2023/07/26 02:51:58;;;;;;;6.85;5.80;;;;;;;13.49;81.52;101074.75;5014073;28;20524;-63
2023/07/26 02:54:23;;;;;;;6.50;5.75;;;;;;;13.49;81.53;101074.75;5021345;28;20036;-64
2023/07/26 02:56:48;;;;;;;9.50;5.78;;;;;;;13.41;81.42;101072.19;5020725;28;20436;-64
2023/07/26 02:59:14;;;;;;;7.68;6.18;;;;;;;13.40;81.50;101075.88;5015777;28;20398;-64
2023/07/26 03:01:39;;;;;;;6.95;5.90;;;;;;;13.32;81.52;101080.28;5019667;28;20029;-63
2023/07/26 03:04:04;;;;;;;8.57;5.43;;;;;;;13.21;81.26;101085.22;5017301;28;20025;-63
2023/07/26 03:06:30;;;;;;;7.88;6.03;;;;;;;13.08;81.59;101087.66;5018933;28;20474;-63
2023/07/26 03:08:55;;;;;;;6.70;5.45;;;;;;;12.99;81.83;101090.38;5021650;28;20029;-63
2023/07/26 03:11:20;;;;;;;8.05;5.95;;;;;;;12.94;82.28;101082.09;5022088;28;20026;-64
2023/07/26 03:13:45;;;;;;;9.43;5.97;;;;;;;12.87;82.34;101085.66;5022345;28;20033;-64
2023/07/26 03:16:11;;;;;;;9.38;6.32;;;;;;;12.80;83.24;101082.06;5016451;28;20030;-63
2023/07/26 03:18:36;;;;;;;9.00;6.03;;;;;;;12.78;83.02;101076.94;5020109;28;20025;-64
2023/07/26 03:21:01;;;;;;;7.90;6.10;;;;;;;12.75;83.35;101077.28;5022690;28;20641;-63
2023/07/26 03:23:26;;;;;;;12.27;5.90;;;;;;;12.73;83.34;101081.13;5019980;28;20025;-63
2023/07/26 03:25:52;;;;;;;8.25;5.78;;;;;;;12.69;83.66;101084.13;5020091;28;20709;-63
2023/07/26 03:28:17;;;;;;;8.38;5.63;;;;;;;12.69;83.61;101084.13;5018573;28;20162;-63
2023/07/26 03:30:42;;;;;;;7.53;6.05;;;;;;;12.71;84.19;101086.63;5025845;28;20033;-63
2023/07/26 03:33:08;;;;;;;7.90;6.38;;;;;;;12.72;83.74;101088.28;5021006;28;20507;-63
2023/07/26 03:35:34;;;;;;;7.38;6.13;;;;;;;12.77;83.91;101087.75;5025292;28;20060;-64
2023/07/26 03:37:59;;;;;;;8.77;5.95;;;;;;;12.75;84.00;101093.28;5015497;28;20506;-63
2023/07/26 03:40:24;;;;;;;7.45;6.20;;;;;;;12.76;84.02;101096.78;5027030;28;20042;-63
2023/07/26 03:42:49;;;;;;;8.57;5.88;;;;;;;12.69;83.53;101093.97;5023323;28;20080;-63
2023/07/26 03:45:15;;;;;;;8.38;5.90;;;;;;;12.61;83.57;101092.19;5021676;28;20047;-63
2023/07/26 03:47:40;;;;;;;8.75;6.25;;;;;;;12.61;84.23;101100.19;5021662;28;20022;-63
2023/07/26 03:50:06;;;;;;;9.85;5.78;;;;;;;12.62;84.06;101093.84;5023244;28;20414;-63
2023/07/26 03:52:31;;;;;;;8.13;5.97;;;;;;;12.61;84.58;101094.03;5025389;28;20056;-63
2023/07/26 03:54:56;;;;;;;6.38;5.78;;;;;;;12.63;84.66;101092.00;5027706;28;20049;-63
2023/07/26 03:57:22;;;;;;;9.05;6.20;;;;;;;12.61;84.89;101099.34;5024680;28;20458;-63
2023/07/26 03:59:47;;;;;;;6.50;5.57;;;;;;;12.58;84.53;101087.22;5023079;28;20033;-63
2023/07/26 04:02:12;;;;;;;10.18;5.72;;;;;;;12.53;84.85;101089.59;5023565;28;20530;-64
2023/07/26 04:04:37;;;;;;;7.07;4.97;;;;;;;12.54;84.72;101087.75;5025359;28;20033;-63
2023/07/26 04:07:04;;;;;;;8.02;5.65;;;;;;;12.48;84.48;101085.81;5017765;28;20018;-63
2023/07/26 04:09:29;;;;;;;6.68;5.47;;;;;;;12.48;84.95;101078.66;5026352;28;20045;-64
2023/07/26 04:11:58;;;;;;;7.43;6.15;;;;;;;12.50;84.78;101089.13;5022423;28;20021;-63
2023/07/26 04:14:24;;;;;;;7.55;5.28;;;;;;;12.49;85.02;101076.81;5025334;28;20121;-64
2023/07/26 04:16:50;;;;;;;8.00;5.68;;;;;;;12.50;85.24;101079.28;5023467;28;20104;-63
2023/07/26 04:19:15;;;;;;;7.55;5.20;;;;;;;12.53;85.52;101086.94;5024686;28;20355;-63
2023/07/26 04:21:40;;;;;;;7.03;5.68;;;;;;;12.53;85.11;101081.59;5020052;28;20075;-64
2023/07/26 04:24:06;;;;;;;7.07;5.53;;;;;;;12.51;85.31;101090.78;5027807;28;20021;-64
2023/07/26 04:26:31;;;;;;;9.43;5.18;;;;;;;12.52;84.93;101087.94;5022329;28;20025;-64
2023/07/26 04:28:57;;;;;;;6.95;5.68;;;;;;;12.51;85.36;101090.78;5026811;28;20633;-64
2023/07/26 04:31:22;;;;;;;7.68;5.05;;;;;;;12.51;85.19;101078.28;5024600;28;20038;-64
2023/07/26 04:33:48;;;;;;;8.20;5.50;;;;;;;12.49;84.90;101085.63;5020325;28;20509;-64
2023/07/26 04:36:13;;;;;;;7.50;5.65;;;;;;;12.50;85.18;101083.78;5019354;28;20037;-64
2023/07/26 04:38:39;;;;;;;8.63;5.57;;;;;;;12.50;85.20;101083.78;5020540;28;20029;-63
2023/07/26 04:41:04;;;;;;;8.43;5.43;;;;;;;12.49;85.22;101098.13;5019494;28;20498;-64
2023/07/26 04:43:29;;;;;;;6.45;5.65;;;;;;;12.50;85.40;101091.78;5017808;28;20402;-64
2023/07/26 04:45:55;;;;;;;7.70;5.88;;;;;;;12.48;85.38;101091.13;5019570;28;20025;-64
2023/07/26 04:48:20;;;;;;;8.48;5.78;;;;;;;12.47;85.32;101098.31;5020302;28;20755;-64
2023/07/26 04:50:47;;;;;;;8.63;5.93;;;;;;;12.43;85.77;101091.66;5026287;28;20029;-64
2023/07/26 04:53:13;;;;;;;7.88;5.78;;;;;;;12.41;85.97;101089.16;5019995;28;20106;-63
2023/07/26 04:55:49;;;;;;;8.88;6.10;;;;;;;12.35;85.64;101092.53;5028207;28;20036;-63
2023/07/26 04:58:15;;;;;;;7.30;5.55;;;;;;;12.28;85.76;101091.59;5019778;28;20030;-63
2023/07/26 05:00:41;;;;;;;9.60;6.38;;;;;;;12.27;85.91;101095.25;5025672;28;20667;-63
2023/07/26 05:03:08;;;;;;;9.23;6.60;;;;;;;12.26;86.55;101098.09;5025221;28;20037;-63
2023/07/26 05:05:34;;;;;;;9.98;6.40;;;;;;;12.24;87.16;101092.94;5025242;28;20040;-63
2023/07/26 05:07:59;;;;;;;9.23;6.93;;;;;;;12.27;86.96;101087.25;5021429;28;20498;-63
2023/07/26 05:10:25;;;;;;;9.25;6.32;;;;;;;12.32;87.58;101090.22;5017229;28;20104;-64
2023/07/26 05:12:51;;;;;;;9.40;6.82;;;;;;;12.36;87.76;101088.03;5025772;28;20136;-63
2023/07/26 05:15:17;;;;;;;10.00;6.80;;;;;;;12.40;88.07;101082.16;5021022;28;20105;-63
2023/07/26 05:17:42;;;;;;;9.35;6.82;;;;;;;12.41;87.89;101083.81;5020104;28;20059;-63
2023/07/26 05:20:08;;;;;;;9.63;6.82;;;;;;;12.44;87.64;101082.69;5020132;28;20648;-63
2023/07/26 05:22:33;;;;;;;13.10;7.40;;;;;;;12.48;88.05;101085.81;5024156;28;20036;-63
2023/07/26 05:24:58;;;;;;;9.38;7.13;;;;;;;12.48;88.01;101081.31;5022762;28;20036;-64
2023/07/26 05:27:24;;;;;;;9.48;7.28;;;;;;;12.51;88.27;101080.94;5023843;28;20021;-63
2023/07/26 05:29:49;;;;;;;10.85;7.47;;;;;;;12.54;88.41;101085.94;5023623;28;20021;-63
2023/07/26 05:32:14;;;;;;;10.45;7.40;;;;;;;12.57;88.76;101088.22;5018371;28;20026;-64
2023/07/26 05:34:39;;;;;;;8.50;7.40;;;;;;;12.60;88.95;101087.88;5021725;28;20052;-64
2023/07/26 05:37:05;;;;;;;8.52;7.25;;;;;;;12.67;88.97;101087.97;5016653;28;20037;-63
2023/07/26 05:39:31;;;;;;;10.60;7.43;;;;;;;12.70;89.59;101088.44;5015476;28;20403;-63
2023/07/26 05:41:57;;;;;;;10.02;7.85;;;;;;;12.80;89.88;101090.91;5023454;28;20422;-63
2023/07/26 05:44:22;;;;;;;12.60;8.23;;;;;;;12.82;89.79;101091.53;5019664;28;20041;-63
2023/07/26 05:46:47;;;;;;;9.60;8.07;;;;;;;12.86;89.49;101092.84;5022591;28;20028;-63
2023/07/26 05:49:13;;;;;;;9.90;8.13;;;;;;;12.90;90.23;101096.81;5021084;28;20487;-63
2023/07/26 05:51:38;;;;;;;10.82;8.30;;;;;;;12.96;90.29;101105.91;5024173;28;20065;-63
2023/07/26 05:54:03;;;;;;;13.13;8.60;;;;;;;13.02;90.62;101099.88;5024259;28;20024;-63
2023/07/26 05:56:28;;;;;;;11.35;9.00;;;;;;;13.08;90.81;101101.00;5021674;28;20037;-63
2023/07/26 05:58:54;;;;;;;12.23;8.32;;;;;;;13.16;90.95;101107.06;5022928;28;20029;-64
2023/07/26 06:01:19;;;;;;;11.80;9.07;;;;;;;13.24;91.13;101120.34;5028926;28;20376;-64
2023/07/26 06:03:45;;;;;;;15.30;9.43;;;;;;;13.31;90.72;101125.81;5024864;28;20033;-63
2023/07/26 06:06:10;;;;;;;13.23;9.45;;;;;;;13.43;91.59;101120.84;5010067;28;20080;-64
2023/07/26 06:08:36;;;;;;;12.07;9.32;;;;;;;13.50;91.54;101130.59;5023188;28;20033;-64
2023/07/26 06:11:01;;;;;;;13.70;9.52;;;;;;;13.58;91.29;101127.84;5028125;28;20494;-64
2023/07/26 06:13:26;;;;;;;16.63;9.60;;;;;;;13.69;91.63;101126.59;5024334;28;20044;-63
2023/07/26 06:15:51;;;;;;;14.98;9.77;;;;;;;13.78;91.54;101127.31;5027364;28;20028;-64
2023/07/26 06:18:17;;;;;;;13.15;9.88;;;;;;;13.79;90.97;101129.78;5016471;28;20034;-64
2023/07/26 06:20:42;;;;;;;12.15;9.88;;;;;;;13.83;90.72;101131.06;5022328;28;20470;-63
2023/07/26 06:23:07;;;;;;;14.30;10.18;;;;;;;13.90;90.83;101145.38;5015817;28;20022;-63
2023/07/26 06:25:33;;;;;;;16.50;10.43;;;;;;;13.95;91.08;101150.16;5023823;28;20033;-63
2023/07/26 06:27:58;;;;;;;15.63;10.02;;;;;;;13.97;91.42;101158.81;5021318;28;20397;-63
2023/07/26 06:30:23;;;;;;;17.15;10.73;;;;;;;13.99;91.27;101155.94;5014966;28;20068;-64
2023/07/26 06:32:49;;;;;;;15.70;10.57;;;;;;;13.99;91.48;101153.28;5017020;28;20030;-63
2023/07/26 06:35:15;;;;;;;17.55;10.88;;;;;;;13.98;91.54;101156.97;5018704;28;20032;-63
2023/07/26 06:37:40;;;;;;;16.60;10.85;;;;;;;13.92;91.64;101159.38;5016211;28;20029;-63
2023/07/26 06:40:06;;;;;;;17.05;11.00;;;;;;;13.88;91.80;101159.91;5018523;28;20593;-64
2023/07/26 06:42:32;;;;;;;17.30;11.68;;;;;;;13.85;92.02;101162.94;5025413;28;20508;-63
2023/07/26 06:44:58;;;;;;;17.13;11.48;;;;;;;13.78;92.82;101162.84;5017640;28;20038;-63
2023/07/26 06:47:23;;;;;;;17.75;12.02;;;;;;;13.76;92.73;101166.72;5019292;28;20025;-63
2023/07/26 06:49:49;;;;;;;17.30;12.15;;;;;;;13.74;93.48;101169.56;5015606;28;20893;-63
2023/07/26 06:52:15;;;;;;;19.63;12.63;;;;;;;13.72;93.83;101170.75;5017862;28;20033;-63
2023/07/26 06:54:40;;;;;;;18.65;12.45;;;;;;;13.70;93.93;101168.28;5026124;28;20176;-63
2023/07/26 06:57:06;;;;;;;18.80;12.55;;;;;;;13.67;94.50;101178.50;5031165;28;20116;-63
2023/07/26 06:59:31;;;;;;;18.70;12.30;;;;;;;13.59;94.44;101171.41;5019150;28;20486;-64
2023/07/26 07:01:56;;;;;;;19.33;13.23;;;;;;;13.61;94.73;101175.53;5028641;28;20507;-63
2023/07/26 07:04:22;;;;;;;17.00;12.55;;;;;;;13.60;95.01;101176.56;5031266;28;20021;-64
2023/07/26 07:06:48;;;;;;;20.83;13.27;;;;;;;13.60;95.82;101189.06;5026742;28;20022;-63
2023/07/26 07:09:13;;;;;;;18.50;13.15;;;;;;;13.61;96.11;101201.41;5018137;28;20040;-63
2023/07/26 07:11:39;;;;;;;20.67;13.88;;;;;;;13.58;96.32;101201.75;5020056;28;20037;-63
2023/07/26 07:14:04;;;;;;;18.42;13.00;;;;;;;13.54;96.53;101195.94;5025821;28;20025;-63
2023/07/26 07:16:29;;;;;;;17.13;13.00;;;;;;;13.53;97.05;101198.78;5024077;28;20070;-64
2023/07/26 07:18:55;;;;;;;18.45;13.25;;;;;;;13.50;97.27;101191.16;5025165;28;20501;-63
2023/07/26 07:21:20;;;;;;;20.02;13.70;;;;;;;13.46;97.55;101181.84;5026230;28;20154;-63
2023/07/26 07:23:46;;;;;;;22.85;14.80;;;;;;;13.52;97.78;101202.47;5030680;28;20039;-63
2023/07/26 07:26:12;;;;;;;20.25;14.55;;;;;;;13.51;98.50;101190.97;5020254;28;20029;-63
2023/07/26 07:28:37;;;;;;;20.52;14.38;;;;;;;13.58;98.88;101199.06;5023452;28;20509;-63
2023/07/26 07:31:02;;;;;;;18.75;14.55;;;;;;;13.64;98.89;101196.53;5026406;28;20434;-63
2023/07/26 07:33:28;;;;;;;18.15;13.65;;;;;;;13.71;98.78;101187.78;5021414;28;20029;-63
2023/07/26 07:35:53;;;;;;;18.95;13.35;;;;;;;13.74;99.50;101195.44;5020223;28;20440;-63
2023/07/26 07:38:18;;;;;;;22.13;13.35;;;;;;;13.78;99.26;101197.53;5023326;28;20026;-63
2023/07/26 07:40:44;;;;;;;17.23;12.93;;;;;;;13.84;99.08;101201.31;5015088;28;20103;-63
2023/07/26 07:43:09;;;;;;;16.65;12.98;;;;;;;13.91;98.78;101203.09;5024765;28;20025;-63
2023/07/26 07:45:40;;;;;;;17.98;12.68;;;;;;;13.93;99.07;101206.41;5026248;28;20702;-63
2023/07/26 07:48:05;;;;;;;16.92;13.13;;;;;;;14.00;98.84;101201.16;5021043;28;20022;-63
2023/07/26 07:50:30;;;;;;;19.15;13.00;;;;;;;14.02;98.51;101195.63;5018486;28;20395;-63
2023/07/26 07:52:56;;;;;;;20.13;13.43;;;;;;;14.06;98.46;101189.72;5014508;28;20032;-63
2023/07/26 07:55:21;;;;;;;18.63;12.93;;;;;;;14.11;98.79;101195.34;5026156;28;20103;-63
2023/07/26 07:57:46;;;;;;;20.20;13.55;;;;;;;14.19;98.41;101208.63;5019351;28;20060;-63
2023/07/26 08:00:12;;;;;;;21.50;14.55;;;;;;;14.25;98.43;101204.38;5022513;28;20087;-63
2023/07/26 08:02:38;;;;;;;23.85;14.55;;;;;;;14.31;97.98;101211.63;5027587;28;20502;-63
2023/07/26 08:05:03;;;;;;;21.15;15.02;;;;;;;14.43;98.20;101220.03;5027784;28;20029;-63
2023/07/26 08:07:29;;;;;;;21.85;14.85;;;;;;;14.52;98.72;101206.41;5022271;28;20160;-63
2023/07/26 08:09:54;;;;;;;22.25;15.55;;;;;;;14.63;98.31;101207.75;5027140;28;20032;-63
2023/07/26 08:12:19;;;;;;;25.02;14.80;;;;;;;14.66;98.30;101207.38;5026498;28;20382;-63
2023/07/26 08:14:50;;;;;;;29.90;16.08;;;;;;;14.78;97.74;101211.22;5021986;28;20033;-63
2023/07/26 08:17:15;;;;;;;25.58;15.93;;;;;;;14.95;98.21;101219.81;5028213;28;20025;-63
2023/07/26 08:19:41;;;;;;;25.98;16.20;;;;;;;15.09;98.76;101213.59;5022207;28;20104;-63
2023/07/26 08:22:06;;;;;;;21.02;14.35;;;;;;;15.18;97.89;101212.44;5023401;28;20022;-63
2023/07/26 08:24:31;;;;;;;19.20;14.55;;;;;;;15.27;98.22;101204.28;5029223;28;20025;-63
2023/07/26 08:26:56;;;;;;;21.52;14.85;;;;;;;15.37;96.96;101202.13;5028476;28;20016;-63
2023/07/26 08:29:21;;;;;;;18.30;14.05;;;;;;;15.42;96.10;101208.53;5028850;28;20022;-63
2023/07/26 08:31:47;;;;;;;18.05;14.32;;;;;;;15.54;95.61;101203.47;5028288;28;20773;-63
2023/07/26 08:34:12;;;;;;;17.20;13.35;;;;;;;15.59;95.39;101201.06;5029620;28;20044;-63
2023/07/26 08:36:37;;;;;;;22.60;14.82;;;;;;;15.68;94.76;101202.59;5021577;28;20041;-63
2023/07/26 08:39:03;;;;;;;20.13;14.27;;;;;;;15.79;94.67;101207.41;5023072;28;20487;-63
2023/07/26 08:41:29;;;;;;;20.13;14.25;;;;;;;15.97;94.96;101204.25;5027797;28;20029;-63
2023/07/26 08:43:57;;;;;;;19.35;12.68;;;;;;;16.10;93.99;101198.94;5028896;28;20029;-63
2023/07/26 08:46:24;;;;;;;18.42;12.93;;;;;;;16.29;93.50;101202.75;5027900;28;20032;-63
2023/07/26 08:48:49;;;;;;;15.45;11.18;;;;;;;16.42;91.77;101204.66;5023392;28;20036;-63
2023/07/26 08:51:15;;;;;;;16.42;11.30;;;;;;;16.55;90.23;101202.03;5028696;28;20032;-63
2023/07/26 08:53:44;;;;;;;16.48;10.80;;;;;;;16.70;89.33;101201.91;5024433;28;20100;-63
2023/07/26 08:56:11;;;;;;;18.08;11.00;;;;;;;16.90;88.92;101199.28;5025265;28;20030;-63
2023/07/26 08:58:36;;;;;;;16.55;10.63;;;;;;;17.04;88.67;101204.47;5025716;28;20108;-63
2023/07/26 09:01:01;;;;;;;11.95;9.07;;;;;;;16.97;86.85;101192.06;5025729;28;20116;-63
2023/07/26 09:03:27;;;;;;;13.35;9.25;;;;;;;16.92;86.10;101195.38;5017746;28;20026;-63
2023/07/26 09:06:05;;;;;;;11.90;7.65;;;;;;;16.93;85.27;101194.34;5024730;28;20029;-63
2023/07/26 09:08:31;;;;;;;14.82;9.07;;;;;;;16.99;84.78;101190.81;5019200;28;20108;-63
2023/07/26 09:10:56;;;;;;;12.05;7.82;;;;;;;17.01;83.54;101194.13;5021415;28;20040;-63
2023/07/26 09:13:22;;;;;;;11.32;7.70;;;;;;;17.04;83.31;101192.91;5026223;28;20025;-63
2023/07/26 09:15:47;;;;;;;13.20;7.50;;;;;;;17.10;82.70;101192.09;5025107;28;20028;-63
2023/07/26 09:18:14;;;;;;;12.43;7.38;;;;;;;17.23;82.01;101184.06;5017504;28;20491;-63
2023/07/26 09:20:40;;;;;;;15.00;7.72;;;;;;;17.46;81.36;101180.13;5027808;28;20021;-63
2023/07/26 09:23:05;;;;;;;11.15;7.38;;;;;;;17.58;80.12;101179.28;5013893;28;20029;-63
2023/07/26 09:25:32;;;;;;;10.48;7.57;;;;;;;17.76;79.51;101177.84;5023707;28;20087;-63
2023/07/26 09:28:01;;;;;;;10.65;7.15;;;;;;;17.67;78.50;101179.09;5020298;28;20369;-63
2023/07/26 09:30:27;;;;;;;11.98;6.32;;;;;;;17.57;77.27;101177.63;5023243;28;20036;-63
2023/07/26 09:32:53;;;;;;;9.90;6.72;;;;;;;17.42;75.56;101176.22;5027111;28;20029;-63
2023/07/26 09:35:19;;;;;;;11.93;7.13;;;;;;;17.33;76.80;101180.94;5024062;28;20026;-63
2023/07/26 09:37:44;;;;;;;12.77;7.07;;;;;;;17.11;76.59;101199.13;5017494;28;20033;-63
2023/07/26 09:40:10;;;;;;;11.27;5.18;;;;;;;16.64;75.07;101198.16;5017925;28;20021;-63
2023/07/26 09:42:46;;;;;;;14.23;6.13;;;;;;;16.33;76.55;101206.69;5026983;28;20036;-63
2023/07/26 09:45:21;;;;;;;11.07;7.10;;;;;;;16.04;78.88;101209.63;5025085;28;20022;-64
2023/07/26 09:47:46;;;;;;;12.52;6.65;;;;;;;15.93;80.95;101202.16;5022774;28;20029;-64
2023/07/26 09:50:29;;;;;;;11.77;5.88;;;;;;;15.92;82.07;101198.66;5024354;28;20502;-63
2023/07/26 09:52:56;;;;;;;12.48;6.13;;;;;;;15.85;82.33;101204.97;5019553;28;20104;-63
2023/07/26 09:55:26;;;;;;;9.00;6.22;;;;;;;15.81;82.93;101199.19;5026110;28;20372;-63
2023/07/26 09:57:53;;;;;;;10.15;6.82;;;;;;;15.89;83.76;101188.31;5024087;28;20295;-63
2023/07/26 10:00:23;;;;;;;11.10;7.50;;;;;;;16.22;85.52;101188.50;5022745;28;20042;-63
2023/07/26 10:02:55;;;;;;;13.90;8.48;;;;;;;16.61;87.59;101187.00;5020987;28;20029;-63
2023/07/26 10:05:21;;;;;;;13.30;7.60;;;;;;;16.67;86.98;101183.53;5024994;28;20534;-63
2023/07/26 10:07:47;;;;;;;10.75;7.63;;;;;;;16.60;86.23;101188.84;5027766;28;20593;-63
2023/07/26 10:10:16;;;;;;;10.27;7.22;;;;;;;16.52;86.21;101188.22;5026568;28;20434;-63
2023/07/26 10:12:44;;;;;;;13.13;7.33;;;;;;;16.51;86.00;101187.41;5020614;28;20108;-63
2023/07/26 10:15:15;;;;;;;10.25;6.70;;;;;;;16.46;85.16;101200.53;5030127;28;20075;-63
2023/07/26 10:17:42;;;;;;;14.77;8.15;;;;;;;16.38;85.14;101204.22;5020488;28;20037;-64
2023/07/26 10:20:09;;;;;;;10.60;6.60;;;;;;;16.06;84.35;101196.84;5019317;28;20615;-64
2023/07/26 10:22:35;;;;;;;12.15;6.90;;;;;;;15.84;84.26;101209.50;5024585;28;20029;-63
2023/07/26 10:25:00;;;;;;;10.55;6.55;;;;;;;15.69;84.73;101203.44;5019783;28;20021;-64
2023/07/26 10:27:26;;;;;;;9.57;6.13;;;;;;;15.52;85.24;101191.31;5030973;28;20372;-63
2023/07/26 10:29:52;;;;;;;10.23;6.78;;;;;;;15.52;85.44;101192.16;5015439;28;20053;-63
2023/07/26 10:32:17;;;;;;;11.15;7.43;;;;;;;15.73;87.17;101178.75;5024744;28;20048;-63
2023/07/26 10:34:42;;;;;;;10.65;6.13;;;;;;;15.90;87.09;101183.78;5023803;28;20025;-63
2023/07/26 10:37:18;;;;;;;10.80;7.28;;;;;;;16.32;88.07;101183.59;5018649;28;20137;-63
2023/07/26 10:39:44;;;;;;;8.75;5.88;;;;;;;16.49;87.17;101177.91;5015489;28;20407;-63
2023/07/26 10:42:27;;;;;;;10.25;6.32;;;;;;;16.72;85.30;101178.38;5017487;28;20487;-63
2023/07/26 10:44:59;;;;;;;8.80;5.78;;;;;;;16.92;83.49;101173.91;5017593;28;20497;-63
2023/07/26 10:47:24;;;;;;;9.73;6.55;;;;;;;17.20;83.33;101173.72;5019669;28;20502;-63
2023/07/26 10:49:52;;;;;;;9.10;6.00;;;;;;;17.52;83.20;101174.75;5021145;28;20039;-63
2023/07/26 10:52:18;;;;;;;9.98;5.78;;;;;;;17.89;83.08;101181.31;5022203;28;20036;-63
2023/07/26 10:54:51;;;;;;;10.07;6.10;;;;;;;18.18;79.98;101179.19;5020489;28;20057;-64
2023/07/26 10:57:17;;;;;;;14.25;5.95;;;;;;;18.34;78.45;101173.34;5020912;28;20018;-64
2023/07/26 10:59:56;;;;;;;8.43;5.43;;;;;;;18.37;77.15;101183.66;5023625;28;20084;-63
2023/07/26 11:02:44;;;;;;;9.32;6.30;;;;;;;18.35;76.49;101179.53;5025069;28;20025;-64
2023/07/26 11:05:12;;;;;;;9.75;5.78;;;;;;;18.31;77.25;101175.63;5011911;28;20134;-63
2023/07/26 11:08:07;;;;;;;7.13;5.65;;;;;;;18.29;76.81;101183.09;5016510;28;20383;-64
2023/07/26 11:10:33;;;;;;;9.95;5.93;;;;;;;18.20;76.41;101179.78;5024443;28;20702;-63
2023/07/26 11:13:12;;;;;;;10.25;5.70;;;;;;;18.15;76.50;101182.28;5022104;28;20025;-63
2023/07/26 11:15:42;;;;;;;7.93;5.18;;;;;;;18.13;75.49;101190.56;5019382;28;20036;-63